Time;durP1;ratioP1;P1;durP2;ratioP2;P2;SDS_P1;SDS_P2;PMS_P1;PMS_P2;Temp;Humidity;BMP_temperature;BMP_pressure;BME280_temperature;BME280_humidity;BME280_pressure;Samples;Min_cycle;Max_cycle;Signal;HPM_P1;HPM_P2
2022/03/04 11:44:55;;;;;;;7.90;4.32;;;;;;;;;;1012013;26;20347;-69
2022/03/04 11:47:22;;;;;;;7.45;4.15;;;;;;;;;;5043243;28;20056;-69
2022/03/04 11:49:48;;;;;;;7.60;4.10;;;;;;;;;;5067097;28;20074;-69
2022/03/04 11:52:20;;;;;;;7.70;4.25;;;;;;;;;;5066526;28;20060;-69
2022/03/04 11:54:49;;;;;;;7.75;4.63;;;;;;;;;;5050402;28;20036;-69
2022/03/04 11:57:16;;;;;;;7.82;4.43;;;;;;;;;;5066895;28;20043;-69
2022/03/04 12:00:10;;;;;;;7.55;4.85;;;;;;;;;;5066613;28;20464;-69
2022/03/04 12:02:36;;;;;;;7.50;4.47;;;;;;;;;;5029179;28;20182;-69
2022/03/04 12:05:14;;;;;;;7.55;4.32;;;;;;;;;;5067089;28;20040;-69
2022/03/04 12:07:53;;;;;;;8.82;5.05;;;;;;;;;;5065394;28;20123;-69
2022/03/04 12:10:26;;;;;;;7.80;4.82;;;;;;;;;;5067646;28;20543;-68
2022/03/04 12:13:01;;;;;;;10.50;4.85;;;;;;;;;;5065833;28;20122;-69
2022/03/04 12:15:27;;;;;;;7.80;4.75;;;;;;;;;;5066915;28;20127;-69
2022/03/04 12:17:58;;;;;;;9.45;4.75;;;;;;;;;;5049222;28;20138;-69
2022/03/04 12:20:31;;;;;;;7.47;4.63;;;;;;;;;;5051315;28;20127;-69
2022/03/04 12:23:07;;;;;;;8.15;4.82;;;;;;;;;;5065726;28;20040;-69
2022/03/04 12:25:55;;;;;;;8.23;4.00;;;;;;;;;;5050446;28;20047;-69
2022/03/04 12:28:23;;;;;;;7.90;4.40;;;;;;;;;;5065979;28;20079;-69
2022/03/04 12:31:01;;;;;;;8.13;4.65;;;;;;;;;;5066664;28;20043;-69
2022/03/04 12:33:37;;;;;;;9.50;5.13;;;;;;;;;;5065358;28;20043;-69
2022/03/04 12:36:14;;;;;;;9.23;4.70;;;;;;;;;;5067083;28;20237;-69
2022/03/04 12:38:40;;;;;;;8.07;4.45;;;;;;;;;;5066034;28;20112;-69
2022/03/04 12:41:07;;;;;;;8.23;4.43;;;;;;;;;;5067584;28;20048;-69
2022/03/04 12:43:39;;;;;;;7.97;4.38;;;;;;;;;;5065917;28;20640;-69
2022/03/04 12:46:05;;;;;;;9.02;4.50;;;;;;;;;;5066789;28;20098;-69
2022/03/04 12:48:31;;;;;;;8.05;4.80;;;;;;;;;;5065788;28;20050;-69
2022/03/04 12:50:57;;;;;;;8.55;5.07;;;;;;;;;;5067573;28;20071;-69
2022/03/04 12:53:24;;;;;;;8.02;4.95;;;;;;;;;;5066508;28;20040;-69
2022/03/04 12:55:51;;;;;;;10.45;6.15;;;;;;;;;;5066887;28;20032;-69
2022/03/04 12:58:30;;;;;;;8.00;4.50;;;;;;;;;;5049330;28;20040;-69
2022/03/04 13:00:59;;;;;;;9.48;4.10;;;;;;;;;;5066913;28;20110;-69
2022/03/04 13:03:25;;;;;;;8.15;4.93;;;;;;;;;;5064740;28;20036;-69
2022/03/04 13:05:51;;;;;;;7.60;4.57;;;;;;;;;;5067007;28;20723;-69
2022/03/04 13:08:17;;;;;;;8.27;4.82;;;;;;;;;;5048122;28;20047;-69
2022/03/04 13:10:43;;;;;;;7.18;4.18;;;;;;;;;;5084243;28;20040;-69
2022/03/04 13:13:09;;;;;;;8.85;4.85;;;;;;;;;;5049393;28;20071;-69
2022/03/04 13:15:35;;;;;;;7.07;4.20;;;;;;;;;;5066006;28;20412;-69
2022/03/04 13:18:01;;;;;;;8.88;4.30;;;;;;;;;;5083471;28;20382;-69
2022/03/04 13:20:27;;;;;;;7.93;4.85;;;;;;;;;;5066673;28;20104;-69
2022/03/04 13:23:07;;;;;;;9.02;4.28;;;;;;;;;;5065494;28;20059;-69
2022/03/04 13:25:33;;;;;;;6.95;4.05;;;;;;;;;;5066419;28;20047;-69
2022/03/04 13:27:59;;;;;;;8.15;3.95;;;;;;;;;;5083599;28;20048;-69
2022/03/04 13:30:25;;;;;;;7.60;4.32;;;;;;;;;;5065960;28;20039;-69
2022/03/04 13:32:55;;;;;;;7.57;4.20;;;;;;;;;;5065060;28;20040;-69
2022/03/04 13:35:24;;;;;;;7.00;4.20;;;;;;;;;;5066698;28;20040;-69
2022/03/04 13:37:51;;;;;;;7.65;4.20;;;;;;;;;;5047915;28;20044;-69
2022/03/04 13:40:19;;;;;;;6.95;3.97;;;;;;;;;;5065647;28;20612;-69
2022/03/04 13:42:50;;;;;;;8.65;4.32;;;;;;;;;;5064634;28;20036;-69
2022/03/04 13:45:27;;;;;;;8.07;4.40;;;;;;;;;;5066062;28;20060;-69
2022/03/04 13:47:57;;;;;;;7.18;4.13;;;;;;;;;;5064756;28;20040;-69
2022/03/04 13:50:28;;;;;;;7.50;3.95;;;;;;;;;;5066596;28;20119;-69
2022/03/04 13:52:58;;;;;;;8.25;3.63;;;;;;;;;;5064709;28;20048;-69
2022/03/04 13:55:34;;;;;;;6.75;3.90;;;;;;;;;;5084180;28;20040;-69
2022/03/04 13:58:06;;;;;;;6.78;3.60;;;;;;;;;;5064422;28;20090;-69
2022/03/04 14:00:33;;;;;;;8.40;4.10;;;;;;;;;;5065307;28;20079;-69
2022/03/04 14:03:03;;;;;;;7.45;3.80;;;;;;;;;;5065093;28;20696;-69
2022/03/04 14:05:30;;;;;;;6.72;3.63;;;;;;;;;;5065764;28;20083;-69
2022/03/04 14:08:16;;;;;;;7.95;4.28;;;;;;;;;;5064500;28;20404;-69
2022/03/04 14:10:43;;;;;;;7.20;4.10;;;;;;;;;;5049844;28;20036;-69
2022/03/04 14:13:11;;;;;;;6.38;3.97;;;;;;;;;;5064766;28;20394;-69
2022/03/04 14:15:38;;;;;;;7.30;3.95;;;;;;;;;;5066162;28;20381;-69
2022/03/04 14:18:06;;;;;;;6.68;3.55;;;;;;;;;;5065411;28;20093;-69
2022/03/04 14:20:33;;;;;;;8.35;3.67;;;;;;;;;;5067669;28;20047;-69
2022/03/04 14:22:59;;;;;;;6.85;3.90;;;;;;;;;;5068449;28;20044;-69
2022/03/04 14:25:26;;;;;;;7.03;3.67;;;;;;;;;;5069802;28;20137;-69
2022/03/04 14:27:52;;;;;;;6.72;3.90;;;;;;;;;;5067763;28;20036;-69
2022/03/04 14:30:19;;;;;;;6.95;3.55;;;;;;;;;;5052189;28;20044;-69
2022/03/04 14:32:45;;;;;;;6.18;3.58;;;;;;;;;;5068767;28;20036;-69
2022/03/04 14:35:12;;;;;;;6.55;3.83;;;;;;;;;;5069707;28;20067;-69
2022/03/04 14:37:39;;;;;;;6.35;3.33;;;;;;;;;;5068117;28;20074;-69
2022/03/04 14:40:06;;;;;;;7.68;3.40;;;;;;;;;;5070345;28;20059;-69
2022/03/04 14:42:33;;;;;;;6.22;3.40;;;;;;;;;;5051672;28;20727;-69
2022/03/04 14:44:59;;;;;;;7.50;3.28;;;;;;;;;;5053152;28;20044;-70
2022/03/04 14:47:25;;;;;;;9.55;3.65;;;;;;;;;;5051401;28;20055;-69
2022/03/04 14:49:51;;;;;;;18.17;3.65;;;;;;;;;;5069529;28;20050;-68
2022/03/04 14:52:17;;;;;;;10.38;3.90;;;;;;;;;;5042633;28;20052;-69
2022/03/04 14:54:44;;;;;;;8.93;3.55;;;;;;;;;;5025933;28;20041;-69
2022/03/04 14:57:11;;;;;;;10.43;3.97;;;;;;;;;;5033778;28;20036;-69
2022/03/04 14:59:41;;;;;;;9.85;3.60;;;;;;;;;;5052645;28;20040;-69
2022/03/04 15:02:07;;;;;;;8.02;2.97;;;;;;;;;;5068605;28;20040;-69
2022/03/04 15:04:34;;;;;;;6.88;3.58;;;;;;;;;;5068401;28;20433;-69
2022/03/04 15:07:00;;;;;;;7.57;3.70;;;;;;;;;;5060578;28;20044;-69
2022/03/04 15:09:26;;;;;;;10.57;3.70;;;;;;;;;;5051305;28;20040;-69
2022/03/04 15:11:52;;;;;;;7.20;3.58;;;;;;;;;;5066939;28;20047;-69
2022/03/04 15:14:18;;;;;;;6.20;3.33;;;;;;;;;;5035793;28;20044;-69
2022/03/04 15:16:44;;;;;;;6.38;3.10;;;;;;;;;;5064752;28;20426;-69
2022/03/04 15:19:11;;;;;;;7.68;3.50;;;;;;;;;;5065810;28;20056;-69
2022/03/04 15:21:38;;;;;;;8.13;3.35;;;;;;;;;;5067218;28;20173;-69
2022/03/04 15:24:04;;;;;;;7.07;3.38;;;;;;;;;;5065179;28;20043;-69
2022/03/04 15:26:30;;;;;;;6.28;3.03;;;;;;;;;;5066315;28;20044;-69
2022/03/04 15:28:56;;;;;;;9.40;3.03;;;;;;;;;;5063562;28;20619;-69
2022/03/04 15:31:22;;;;;;;7.22;3.00;;;;;;;;;;5067183;28;20642;-68
2022/03/04 15:33:48;;;;;;;7.47;3.00;;;;;;;;;;5053663;28;20177;-69
2022/03/04 15:36:14;;;;;;;7.13;3.20;;;;;;;;;;5048755;28;20115;-69
2022/03/04 15:38:40;;;;;;;8.90;3.10;;;;;;;;;;5060442;28;20482;-69
2022/03/04 15:41:06;;;;;;;9.15;3.25;;;;;;;;;;5068730;28;20045;-69
2022/03/04 15:43:32;;;;;;;8.77;3.10;;;;;;;;;;5067682;28;20670;-69
2022/03/04 15:45:59;;;;;;;7.60;3.22;;;;;;;;;;5068566;28;20139;-69
2022/03/04 15:48:25;;;;;;;7.00;3.10;;;;;;;;;;5066651;28;20048;-69
2022/03/04 15:50:51;;;;;;;6.70;3.00;;;;;;;;;;5052103;28;20047;-69
2022/03/04 15:53:17;;;;;;;7.78;3.00;;;;;;;;;;5065839;28;20036;-69
2022/03/04 15:55:43;;;;;;;6.03;3.05;;;;;;;;;;5068217;28;20051;-69
2022/03/04 15:58:09;;;;;;;6.13;3.38;;;;;;;;;;5066435;28;20043;-69
2022/03/04 16:00:35;;;;;;;7.03;3.13;;;;;;;;;;5068005;28;20078;-69
2022/03/04 16:03:01;;;;;;;7.13;3.17;;;;;;;;;;5066965;28;20044;-69
2022/03/04 16:05:27;;;;;;;9.63;2.90;;;;;;;;;;5068250;28;20089;-69
2022/03/04 16:07:55;;;;;;;6.68;3.42;;;;;;;;;;5066999;28;20042;-69
2022/03/04 16:10:22;;;;;;;9.00;3.00;;;;;;;;;;5067634;28;20079;-69
2022/03/04 16:12:48;;;;;;;8.93;2.80;;;;;;;;;;5025509;28;20135;-69
2022/03/04 16:15:14;;;;;;;7.15;2.88;;;;;;;;;;5044411;28;21734;-69
2022/03/04 16:17:40;;;;;;;5.97;3.05;;;;;;;;;;5042452;28;20101;-69
2022/03/04 16:20:06;;;;;;;9.05;3.00;;;;;;;;;;5067951;28;20036;-69
2022/03/04 16:22:32;;;;;;;6.82;2.92;;;;;;;;;;5059368;28;20659;-69
2022/03/04 16:24:58;;;;;;;11.50;3.20;;;;;;;;;;5047328;28;20093;-69
2022/03/04 16:27:24;;;;;;;6.00;2.92;;;;;;;;;;5069893;28;22002;-69
2022/03/04 16:29:50;;;;;;;5.50;2.72;;;;;;;;;;5087453;28;20623;-69
2022/03/04 16:32:16;;;;;;;5.28;2.60;;;;;;;;;;5048231;28;20055;-69
2022/03/04 16:34:44;;;;;;;6.38;2.80;;;;;;;;;;5034994;28;20043;-69
2022/03/04 16:37:11;;;;;;;6.30;2.65;;;;;;;;;;5063986;28;20174;-68
2022/03/04 16:39:37;;;;;;;7.07;3.20;;;;;;;;;;5058809;28;20048;-69
2022/03/04 16:42:03;;;;;;;5.72;2.70;;;;;;;;;;5061486;28;20052;-69
2022/03/04 16:44:29;;;;;;;7.10;2.67;;;;;;;;;;5054971;28;20173;-69
2022/03/04 16:46:55;;;;;;;5.50;2.70;;;;;;;;;;5027045;28;20044;-69
2022/03/04 16:49:21;;;;;;;5.88;2.60;;;;;;;;;;5029753;28;20068;-69
2022/03/04 16:51:47;;;;;;;5.05;2.50;;;;;;;;;;5029156;28;20137;-69
2022/03/04 16:54:13;;;;;;;5.43;2.67;;;;;;;;;;5035380;28;20052;-68
2022/03/04 16:56:41;;;;;;;6.60;2.70;;;;;;;;;;5026324;28;20044;-69
2022/03/04 16:59:07;;;;;;;5.13;2.70;;;;;;;;;;5027683;28;20600;-69
2022/03/04 17:01:33;;;;;;;5.57;2.78;;;;;;;;;;5025841;28;20124;-69
2022/03/04 17:03:59;;;;;;;7.45;2.60;;;;;;;;;;5042173;28;20064;-69
2022/03/04 17:06:25;;;;;;;5.40;2.85;;;;;;;;;;5034763;28;20490;-69
2022/03/04 17:08:51;;;;;;;6.00;3.03;;;;;;;;;;5040389;28;20063;-69
2022/03/04 17:11:18;;;;;;;7.32;2.80;;;;;;;;;;5024833;28;20056;-69
2022/03/04 17:13:47;;;;;;;5.13;2.60;;;;;;;;;;5029358;28;20063;-69
2022/03/04 17:16:13;;;;;;;6.03;3.00;;;;;;;;;;5026308;28;20049;-69
2022/03/04 17:18:39;;;;;;;6.20;3.00;;;;;;;;;;5040215;28;20678;-71
2022/03/04 17:21:05;;;;;;;6.30;2.88;;;;;;;;;;4991816;28;20053;-72
2022/03/04 17:23:33;;;;;;;6.25;2.45;;;;;;;;;;5034834;28;20090;-72
2022/03/04 17:26:00;;;;;;;6.47;2.60;;;;;;;;;;5031855;28;20060;-71
2022/03/04 17:28:26;;;;;;;5.45;2.60;;;;;;;;;;5017736;28;20040;-71
2022/03/04 17:30:52;;;;;;;5.75;2.60;;;;;;;;;;5018563;28;20044;-71
2022/03/04 17:33:20;;;;;;;5.63;2.60;;;;;;;;;;5028032;28;20041;-71
2022/03/04 17:35:46;;;;;;;5.53;2.55;;;;;;;;;;5026876;28;20048;-71
2022/03/04 17:38:12;;;;;;;5.22;2.47;;;;;;;;;;5014775;28;20067;-71
2022/03/04 17:40:38;;;;;;;6.78;2.80;;;;;;;;;;5044935;28;20517;-70
2022/03/04 17:43:04;;;;;;;6.55;3.05;;;;;;;;;;5026989;28;20707;-70
2022/03/04 17:45:32;;;;;;;6.20;2.83;;;;;;;;;;5047829;28;20048;-71
2022/03/04 17:47:58;;;;;;;5.65;2.40;;;;;;;;;;5062628;28;20078;-71
2022/03/04 17:50:24;;;;;;;5.55;2.65;;;;;;;;;;5048391;28;20083;-71
2022/03/04 17:52:50;;;;;;;7.05;2.92;;;;;;;;;;5062645;28;20051;-71
2022/03/04 17:55:16;;;;;;;5.20;2.40;;;;;;;;;;5065118;28;20046;-70
2022/03/04 17:57:42;;;;;;;5.75;2.42;;;;;;;;;;5063468;28;20039;-71
2022/03/04 18:00:08;;;;;;;4.90;2.40;;;;;;;;;;5057970;28;20255;-71
2022/03/04 18:02:34;;;;;;;7.35;2.83;;;;;;;;;;5009469;28;20954;-70
2022/03/04 18:05:01;;;;;;;6.47;2.78;;;;;;;;;;5028347;28;20106;-70
2022/03/04 18:07:27;;;;;;;5.85;2.42;;;;;;;;;;5036497;28;20041;-71
2022/03/04 18:09:53;;;;;;;6.30;2.80;;;;;;;;;;5005647;28;20067;-70
2022/03/04 18:12:19;;;;;;;6.80;2.70;;;;;;;;;;5016036;28;20267;-70
2022/03/04 18:14:45;;;;;;;12.50;2.67;;;;;;;;;;5009663;28;20103;-70
2022/03/04 18:17:11;;;;;;;5.68;2.55;;;;;;;;;;5002758;28;20048;-70
2022/03/04 18:19:38;;;;;;;5.97;2.50;;;;;;;;;;5024785;28;20045;-71
2022/03/04 18:22:07;;;;;;;5.45;2.67;;;;;;;;;;5026801;28;20265;-71
2022/03/04 18:24:33;;;;;;;5.28;2.47;;;;;;;;;;5036610;28;20126;-71
2022/03/04 18:26:59;;;;;;;5.85;2.83;;;;;;;;;;5035644;28;20258;-71
2022/03/04 18:29:25;;;;;;;7.68;2.95;;;;;;;;;;5047716;28;20059;-70
2022/03/04 18:31:51;;;;;;;6.18;2.97;;;;;;;;;;5044168;28;20046;-70
2022/03/04 18:34:17;;;;;;;5.95;2.60;;;;;;;;;;5012893;28;20043;-71
2022/03/04 18:36:43;;;;;;;5.10;2.40;;;;;;;;;;5010521;28;20519;-70
2022/03/04 18:41:55;;;;;;;5.82;2.40;;;;;;;;;;5040416;28;20048;-70
2022/03/04 18:44:21;;;;;;;5.47;2.65;;;;;;;;;;5061852;28;20423;-71
2022/03/04 18:46:47;;;;;;;6.55;2.53;;;;;;;;;;5063953;28;20044;-71
2022/03/04 18:49:13;;;;;;;7.32;2.60;;;;;;;;;;5035487;28;20090;-72
2022/03/04 18:51:39;;;;;;;4.97;2.22;;;;;;;;;;5002275;28;20044;-72
2022/03/04 18:54:05;;;;;;;5.15;2.55;;;;;;;;;;5042180;28;20040;-73
2022/03/04 18:56:31;;;;;;;6.15;2.70;;;;;;;;;;5063832;28;20280;-72
2022/03/04 18:58:57;;;;;;;5.32;2.53;;;;;;;;;;5062610;28;20113;-72
2022/03/04 19:01:43;;;;;;;6.15;2.20;;;;;;;;;;5042223;28;20064;-69
2022/03/04 19:04:09;;;;;;;6.38;2.38;;;;;;;;;;5041064;28;20085;-70
2022/03/04 19:06:35;;;;;;;6.85;2.20;;;;;;;;;;5064735;28;20052;-71
2022/03/04 19:09:01;;;;;;;5.32;2.25;;;;;;;;;;5061781;28;20635;-71
2022/03/04 19:11:26;;;;;;;6.10;2.05;;;;;;;;;;5021300;28;20076;-71
2022/03/04 19:13:52;;;;;;;6.57;2.25;;;;;;;;;;5038876;28;20040;-71
2022/03/04 19:16:18;;;;;;;4.88;2.10;;;;;;;;;;5048511;28;20058;-71
2022/03/04 19:18:45;;;;;;;4.78;2.30;;;;;;;;;;5055832;28;20763;-71
2022/03/04 19:21:11;;;;;;;5.75;2.03;;;;;;;;;;5032262;28;20539;-71
2022/03/04 19:23:37;;;;;;;5.00;2.00;;;;;;;;;;5050602;28;20048;-71
2022/03/04 19:26:03;;;;;;;7.70;2.22;;;;;;;;;;5047838;28;20052;-71
2022/03/04 19:28:29;;;;;;;6.07;2.33;;;;;;;;;;5057770;28;20055;-71
2022/03/04 19:30:55;;;;;;;5.40;2.20;;;;;;;;;;5068391;28;20044;-71
2022/03/04 19:33:21;;;;;;;5.60;2.20;;;;;;;;;;5065679;28;20042;-70
2022/03/04 19:35:47;;;;;;;6.03;2.03;;;;;;;;;;5068629;28;20043;-71
2022/03/04 19:38:13;;;;;;;5.05;1.70;;;;;;;;;;5025744;28;20902;-71
2022/03/04 19:40:42;;;;;;;4.10;1.80;;;;;;;;;;5022891;28;20102;-71
2022/03/04 19:43:08;;;;;;;5.20;1.85;;;;;;;;;;5044459;28;20043;-71
2022/03/04 19:45:34;;;;;;;7.05;2.17;;;;;;;;;;5072453;28;20043;-71
2022/03/04 19:48:00;;;;;;;4.43;1.90;;;;;;;;;;5078515;28;20048;-71
2022/03/04 19:50:26;;;;;;;4.80;1.73;;;;;;;;;;5068004;28;20113;-71
2022/03/04 19:52:53;;;;;;;4.65;1.88;;;;;;;;;;5066333;28;20733;-70
2022/03/04 19:55:19;;;;;;;4.82;2.03;;;;;;;;;;5050301;28;20044;-71
2022/03/04 19:57:45;;;;;;;4.30;1.90;;;;;;;;;;5066484;28;20043;-71
2022/03/04 20:00:12;;;;;;;4.70;1.90;;;;;;;;;;5066116;28;20123;-71
2022/03/04 20:02:40;;;;;;;4.50;1.80;;;;;;;;;;5048638;28;20043;-71
2022/03/04 20:05:06;;;;;;;5.68;2.30;;;;;;;;;;5066823;28;20048;-71
2022/03/04 20:07:33;;;;;;;4.97;1.92;;;;;;;;;;5065843;28;20108;-71
2022/03/04 20:10:02;;;;;;;5.80;2.30;;;;;;;;;;5060780;28;20794;-71
2022/03/04 20:12:28;;;;;;;6.03;1.90;;;;;;;;;;5056820;28;20050;-71
2022/03/04 20:14:54;;;;;;;4.55;1.88;;;;;;;;;;5042295;28;20036;-71
2022/03/04 20:17:21;;;;;;;4.65;1.80;;;;;;;;;;5053313;28;20075;-71
2022/03/04 20:19:47;;;;;;;5.88;2.00;;;;;;;;;;5054485;28;20044;-70
2022/03/04 20:22:13;;;;;;;5.03;2.03;;;;;;;;;;5051926;28;20040;-70
2022/03/04 20:24:39;;;;;;;4.47;1.90;;;;;;;;;;5060707;28;20124;-71
2022/03/04 20:27:06;;;;;;;5.43;1.95;;;;;;;;;;5066736;28;20428;-71
2022/03/04 20:29:32;;;;;;;5.80;1.92;;;;;;;;;;5050677;28;20043;-72
2022/03/04 20:31:58;;;;;;;4.18;1.63;;;;;;;;;;5052932;28;20043;-71
2022/03/04 20:34:24;;;;;;;3.90;1.60;;;;;;;;;;5065646;28;20051;-71
2022/03/04 20:36:51;;;;;;;4.57;1.75;;;;;;;;;;5067283;28;20109;-71
2022/03/04 20:39:16;;;;;;;4.68;1.70;;;;;;;;;;5065148;28;20040;-71
2022/03/04 20:41:42;;;;;;;5.22;2.10;;;;;;;;;;5035612;28;20052;-71
2022/03/04 20:44:08;;;;;;;4.40;1.80;;;;;;;;;;5039825;28;20473;-71
2022/03/04 20:46:35;;;;;;;4.88;1.70;;;;;;;;;;5038741;28;20048;-71
2022/03/04 20:49:00;;;;;;;4.13;1.50;;;;;;;;;;5061788;28;20115;-71
2022/03/04 20:51:26;;;;;;;5.65;1.70;;;;;;;;;;5064102;28;20116;-71
2022/03/04 20:53:52;;;;;;;4.40;1.50;;;;;;;;;;5045021;28;20047;-71
2022/03/04 20:56:18;;;;;;;4.50;1.60;;;;;;;;;;5026976;28;20045;-71
2022/03/04 20:58:45;;;;;;;4.15;1.40;;;;;;;;;;5042426;28;20079;-71
2022/03/04 21:01:11;;;;;;;4.20;1.65;;;;;;;;;;5043130;28;20076;-71
2022/03/04 21:03:37;;;;;;;5.07;1.88;;;;;;;;;;5042251;28;20581;-70
2022/03/04 21:06:03;;;;;;;3.75;1.70;;;;;;;;;;5042486;28;20087;-71
2022/03/04 21:08:29;;;;;;;3.92;1.75;;;;;;;;;;5020457;28;20124;-71
2022/03/04 21:10:55;;;;;;;5.20;1.60;;;;;;;;;;5014856;28;20059;-71
2022/03/04 21:13:21;;;;;;;5.78;1.85;;;;;;;;;;5030296;28;20125;-71
2022/03/04 21:15:47;;;;;;;4.38;1.80;;;;;;;;;;5031284;28;20461;-71
2022/03/04 21:18:13;;;;;;;4.03;1.73;;;;;;;;;;5028816;28;20041;-71
2022/03/04 21:20:39;;;;;;;4.32;1.52;;;;;;;;;;5029445;28;20049;-71
2022/03/04 21:23:05;;;;;;;4.32;1.65;;;;;;;;;;5034823;28;20152;-71
2022/03/04 21:25:31;;;;;;;4.97;1.83;;;;;;;;;;5034648;28;20136;-71
2022/03/04 21:27:57;;;;;;;5.30;1.55;;;;;;;;;;5037143;28;20045;-71
2022/03/04 21:30:25;;;;;;;4.30;1.70;;;;;;;;;;5035607;28;20633;-71
2022/03/04 21:32:51;;;;;;;4.55;1.60;;;;;;;;;;5029253;28;20040;-71
2022/03/04 21:35:18;;;;;;;4.68;1.67;;;;;;;;;;5061714;28;20127;-72
2022/03/04 21:37:44;;;;;;;3.53;1.38;;;;;;;;;;5056182;28;20055;-72
2022/03/04 21:40:10;;;;;;;5.25;1.60;;;;;;;;;;5025847;28;20127;-72
2022/03/04 21:42:36;;;;;;;4.88;1.83;;;;;;;;;;5024992;28;20417;-71
2022/03/04 21:45:02;;;;;;;4.97;1.77;;;;;;;;;;5041572;28;20045;-72
2022/03/04 21:47:28;;;;;;;9.82;1.90;;;;;;;;;;5041085;28;20129;-71
2022/03/04 21:49:54;;;;;;;4.20;1.40;;;;;;;;;;5044894;28;20044;-71
2022/03/04 21:52:20;;;;;;;3.75;1.55;;;;;;;;;;5043094;28;20643;-71
2022/03/04 21:54:46;;;;;;;3.97;1.60;;;;;;;;;;5060462;28;20656;-71
2022/03/04 21:57:12;;;;;;;4.95;1.58;;;;;;;;;;5041401;28;20080;-71
2022/03/04 21:59:38;;;;;;;4.07;1.55;;;;;;;;;;5045413;28;20123;-72
2022/03/04 22:02:04;;;;;;;3.42;1.40;;;;;;;;;;5045295;28;20632;-71
2022/03/04 22:04:30;;;;;;;4.18;1.63;;;;;;;;;;5041767;28;20041;-71
2022/03/04 22:06:56;;;;;;;3.67;1.50;;;;;;;;;;5024595;28;20081;-72
2022/03/04 22:09:22;;;;;;;4.47;1.67;;;;;;;;;;5024790;28;20422;-71
2022/03/04 22:11:52;;;;;;;4.47;1.50;;;;;;;;;;5005374;28;20045;-71
2022/03/04 22:14:18;;;;;;;3.97;1.60;;;;;;;;;;5056910;28;20044;-71
2022/03/04 22:16:44;;;;;;;5.88;1.90;;;;;;;;;;5051138;28;20081;-71
2022/03/04 22:19:10;;;;;;;4.13;1.77;;;;;;;;;;5023474;28;20080;-71
2022/03/04 22:21:36;;;;;;;4.78;1.70;;;;;;;;;;5023283;28;20061;-71
2022/03/04 22:24:03;;;;;;;4.07;1.50;;;;;;;;;;5028054;28;20048;-71
2022/03/04 22:26:29;;;;;;;4.03;1.42;;;;;;;;;;5021948;28;20096;-72
2022/03/04 22:28:55;;;;;;;3.80;1.50;;;;;;;;;;5021205;28;20145;-71
2022/03/04 22:31:22;;;;;;;5.30;1.70;;;;;;;;;;5022295;28;20538;-71
2022/03/04 22:33:49;;;;;;;3.50;1.60;;;;;;;;;;5032225;28;20040;-71
2022/03/04 22:36:15;;;;;;;3.92;1.75;;;;;;;;;;5060936;28;20757;-69
2022/03/04 22:38:41;;;;;;;3.67;1.50;;;;;;;;;;5060643;28;20099;-71
2022/03/04 22:41:07;;;;;;;6.13;1.88;;;;;;;;;;5046886;28;20634;-71
2022/03/04 22:43:33;;;;;;;5.90;1.70;;;;;;;;;;4989282;28;20133;-70
2022/03/04 22:45:59;;;;;;;4.47;1.85;;;;;;;;;;5021958;28;20086;-71
2022/03/04 22:48:25;;;;;;;6.60;1.80;;;;;;;;;;5032460;28;20057;-72
2022/03/04 22:50:51;;;;;;;6.75;1.75;;;;;;;;;;5025778;28;20060;-71
2022/03/04 22:53:17;;;;;;;6.00;1.75;;;;;;;;;;5026626;28;20047;-71
2022/03/04 22:55:43;;;;;;;6.95;1.90;;;;;;;;;;5026054;28;20072;-71
2022/03/04 22:58:09;;;;;;;5.75;2.00;;;;;;;;;;5007994;28;20041;-71
2022/03/04 23:00:44;;;;;;;7.03;1.80;;;;;;;;;;5010184;28;20067;-71
2022/03/04 23:08:41;;;;;;;5.03;1.85;;;;;;;;;;5024445;28;20065;-71
2022/03/04 23:11:22;;;;;;;5.18;1.90;;;;;;;;;;5026812;28;20100;-71
2022/03/04 23:13:52;;;;;;;7.45;1.90;;;;;;;;;;5025277;28;20135;-71
2022/03/04 23:16:18;;;;;;;4.28;1.80;;;;;;;;;;5026100;28;21213;-71
2022/03/04 23:18:44;;;;;;;4.45;2.05;;;;;;;;;;5007714;28;20057;-71
2022/03/04 23:21:11;;;;;;;5.10;1.67;;;;;;;;;;5008556;28;20057;-71
2022/03/04 23:23:41;;;;;;;5.05;1.60;;;;;;;;;;5009796;28;20178;-71
2022/03/04 23:26:07;;;;;;;4.30;1.77;;;;;;;;;;5026057;28;20071;-71
2022/03/04 23:28:33;;;;;;;4.15;1.52;;;;;;;;;;5021574;28;20159;-71
2022/03/04 23:30:59;;;;;;;4.25;1.67;;;;;;;;;;5025424;28;20770;-71
2022/03/04 23:33:25;;;;;;;4.47;1.70;;;;;;;;;;5025298;28;20049;-71
2022/03/04 23:35:51;;;;;;;4.65;1.90;;;;;;;;;;5026947;28;20045;-72
2022/03/04 23:38:19;;;;;;;4.25;1.77;;;;;;;;;;5023319;28;20079;-71
2022/03/04 23:40:45;;;;;;;5.78;1.92;;;;;;;;;;5026119;28;20053;-71
2022/03/04 23:43:11;;;;;;;4.85;1.90;;;;;;;;;;5022409;28;20122;-71
2022/03/04 23:45:37;;;;;;;5.35;1.77;;;;;;;;;;5025744;28;20060;-71
2022/03/04 23:48:05;;;;;;;3.95;1.60;;;;;;;;;;5009557;28;20114;-71
2022/03/04 23:50:31;;;;;;;4.57;1.77;;;;;;;;;;5000100;28;20036;-71
2022/03/04 23:52:57;;;;;;;4.45;1.85;;;;;;;;;;5006882;28;20040;-71
2022/03/04 23:55:24;;;;;;;4.85;1.80;;;;;;;;;;5022844;28;20064;-71
2022/03/04 23:57:50;;;;;;;4.70;1.65;;;;;;;;;;5025256;28;20049;-71
